Time;durP1;ratioP1;P1;durP2;ratioP2;P2;SDS_P1;SDS_P2;PMS_P1;PMS_P2;Temp;Humidity;BMP_temperature;BMP_pressure;BME280_temperature;BME280_humidity;BME280_pressure;Samples;Min_cycle;Max_cycle;Signal;HPM_P1;HPM_P2
2021/10/02 00:31:47;;;;;;;7.38;4.05;;;;;;;13.15;72.64;99865.97;1088123;54;20031;-80
2021/10/02 00:34:24;;;;;;;6.22;3.85;;;;;;;13.23;72.56;99871.34;1087603;54;20060;-79
2021/10/02 00:35:32;;;;;;;6.72;3.85;;;;;;;13.22;72.39;99871.53;1087480;54;20031;-80
2021/10/02 00:38:14;;;;;;;6.50;3.70;;;;;;;13.22;72.60;99872.38;1087448;54;20034;-79
2021/10/02 00:44:43;;;;;;;7.63;4.32;;;;;;;13.00;73.40;99873.81;1088104;39;20713;-80
2021/10/02 00:45:44;;;;;;;6.68;4.03;;;;;;;12.95;73.69;99890.41;1088824;39;20839;-79
2021/10/02 00:46:50;;;;;;;8.73;4.07;;;;;;;13.07;73.42;99882.91;1087694;54;20019;-79
2021/10/02 00:47:57;;;;;;;6.10;3.58;;;;;;;13.08;73.11;99875.69;1087608;54;20077;-79
2021/10/02 00:48:59;;;;;;;6.25;3.53;;;;;;;13.17;72.72;99872.03;1087986;39;20708;-81
2021/10/02 00:50:07;;;;;;;6.35;3.50;;;;;;;13.21;72.92;99876.06;1087630;54;20055;-79
2021/10/02 00:51:09;;;;;;;5.72;3.28;;;;;;;13.31;72.34;99870.53;1088831;39;20280;-79
2021/10/02 00:52:19;;;;;;;5.68;3.03;;;;;;;13.37;72.16;99872.53;1087555;54;20030;-79
2021/10/02 00:53:23;;;;;;;6.60;3.65;;;;;;;13.32;72.20;99887.47;1087754;54;20031;-79
2021/10/02 00:54:27;;;;;;;6.25;3.47;;;;;;;13.26;72.46;99879.06;1087651;54;20142;-80
2021/10/02 00:55:28;;;;;;;8.82;3.65;;;;;;;13.20;72.58;99886.94;1087495;54;20034;-79
2021/10/02 00:56:32;;;;;;;7.60;4.30;;;;;;;13.09;73.22;99883.56;1087660;54;20031;-79
2021/10/02 00:57:34;;;;;;;6.97;4.15;;;;;;;13.07;73.51;99884.75;1087593;54;20046;-78
2021/10/02 00:58:44;;;;;;;7.70;4.20;;;;;;;12.98;74.11;99880.38;1087615;54;20096;-79
2021/10/02 00:59:47;;;;;;;9.70;4.63;;;;;;;12.90;74.47;99882.03;1087653;54;20063;-80
2021/10/02 01:00:54;;;;;;;7.65;4.60;;;;;;;13.01;74.33;99888.09;1087646;54;20283;-78
2021/10/02 01:01:58;;;;;;;7.07;4.13;;;;;;;13.06;74.06;99880.38;1087955;54;20041;-80
2021/10/02 01:03:10;;;;;;;8.07;4.30;;;;;;;12.95;74.69;99882.38;1087981;54;20030;-80
2021/10/02 01:04:18;;;;;;;6.22;3.75;;;;;;;13.12;73.75;99877.06;1087888;54;20038;-80
2021/10/02 01:05:49;;;;;;;7.25;4.88;;;;;;;13.08;73.79;99887.25;1087858;54;20053;-79
2021/10/02 01:07:02;;;;;;;8.80;3.90;;;;;;;13.20;73.30;99873.53;1087911;54;20050;-79
2021/10/02 01:08:16;;;;;;;6.05;3.92;;;;;;;13.18;73.32;99883.56;1087930;54;20035;-80
2021/10/02 01:09:50;;;;;;;8.43;4.57;;;;;;;13.14;73.48;99879.56;1088047;54;20041;-80
2021/10/02 01:11:00;;;;;;;6.68;4.30;;;;;;;13.00;73.82;99879.19;1087538;54;20046;-79
2021/10/02 01:12:11;;;;;;;9.65;4.20;;;;;;;13.05;73.88;99876.00;1087713;54;20042;-80
2021/10/02 01:13:19;;;;;;;6.38;4.03;;;;;;;13.13;73.30;99873.34;1087545;54;20105;-79
2021/10/02 01:14:30;;;;;;;7.50;4.00;;;;;;;13.08;73.53;99870.31;1087763;54;20774;-80
2021/10/02 01:15:39;;;;;;;;;;;;;;;13.04;73.82;99875.19;1087815;54;20043;-79
2021/10/02 01:16:45;;;;;;;7.07;3.88;;;;;;;13.15;73.18;99871.34;1087581;54;19948;-79
2021/10/02 01:17:52;;;;;;;7.57;3.88;;;;;;;13.24;72.72;99867.66;1087633;54;20034;-79
2021/10/02 01:19:02;;;;;;;7.38;4.00;;;;;;;13.30;72.90;99863.47;1087628;54;20018;-80
2021/10/02 01:20:08;;;;;;;7.05;3.80;;;;;;;13.11;73.33;99867.31;1087726;46;20050;-80
2021/10/02 01:21:47;;;;;;;9.25;4.22;;;;;;;12.98;74.14;99866.94;1087472;54;20034;-79
2021/10/02 01:23:13;;;;;;;8.40;4.20;;;;;;;12.91;74.39;99870.31;1087607;54;20097;-79
2021/10/02 01:24:37;;;;;;;7.93;4.72;;;;;;;12.90;74.31;99867.75;1091476;39;20712;-80
2021/10/02 01:25:57;;;;;;;8.93;4.93;;;;;;;12.84;74.28;99871.97;1087653;54;20057;-80
2021/10/02 01:27:26;;;;;;;8.45;4.72;;;;;;;12.82;74.52;99865.94;1087274;54;20063;-80
2021/10/02 01:28:37;;;;;;;8.90;5.00;;;;;;;12.77;74.51;99868.25;1087654;54;20825;-80
2021/10/02 01:29:40;;;;;;;8.57;4.60;;;;;;;12.77;74.48;99879.81;1087907;54;20038;-79
2021/10/02 01:32:13;;;;;;;8.05;5.10;;;;;;;12.85;74.47;99859.38;1087888;54;20038;-78
2021/10/02 01:33:23;;;;;;;8.30;4.50;;;;;;;12.93;74.15;99857.56;1087966;54;20034;-81
2021/10/02 01:34:34;;;;;;;8.20;4.25;;;;;;;12.96;73.83;99859.09;1087869;54;20693;-79
2021/10/02 01:35:44;;;;;;;8.48;4.57;;;;;;;12.81;73.95;99853.50;1088032;46;20034;-80
2021/10/02 01:37:03;;;;;;;6.70;4.03;;;;;;;12.88;73.75;99859.06;1087780;54;20050;-79
2021/10/02 01:47:27;;;;;;;8.05;5.40;;;;;;;12.63;75.13;99849.13;1087390;54;20034;-80
2021/10/02 01:48:29;;;;;;;9.05;5.00;;;;;;;12.72;74.61;99849.97;1087851;54;20031;-80
2021/10/02 01:49:36;;;;;;;7.65;5.72;;;;;;;12.66;75.02;99847.94;1087962;54;21038;-80
2021/10/02 01:50:41;;;;;;;10.77;6.40;;;;;;;12.70;74.87;99848.44;1087836;54;20038;-80
2021/10/02 01:51:44;;;;;;;7.18;5.18;;;;;;;12.68;74.91;99853.97;1087886;54;20030;-78
2021/10/02 01:52:49;;;;;;;7.75;5.20;;;;;;;12.70;74.86;99851.13;1087850;54;20111;-80
2021/10/02 01:53:54;;;;;;;7.78;5.13;;;;;;;12.73;75.05;99848.97;1087822;54;20038;-80
2021/10/02 01:54:59;;;;;;;6.57;4.45;;;;;;;12.68;75.27;99853.13;1087950;54;20030;-78
2021/10/02 01:56:03;;;;;;;8.82;4.60;;;;;;;12.74;74.95;99850.63;1090510;39;20566;-79
2021/10/02 01:57:09;;;;;;;8.18;4.20;;;;;;;12.84;74.58;99844.28;1087959;54;20030;-78
2021/10/02 01:58:14;;;;;;;8.00;3.90;;;;;;;12.79;74.66;99844.78;1087967;54;20081;-79
2021/10/02 01:59:21;;;;;;;9.82;3.83;;;;;;;12.83;74.57;99851.50;1087767;54;20046;-79
2021/10/02 02:00:28;;;;;;;7.47;4.22;;;;;;;12.91;74.48;99843.47;1088562;39;20645;-79
2021/10/02 02:01:30;;;;;;;6.00;3.67;;;;;;;13.00;74.34;99840.81;1088872;39;20684;-79
2021/10/02 02:02:37;;;;;;;7.80;3.30;;;;;;;13.07;73.70;99834.63;1088343;39;20673;-80
2021/10/02 02:03:42;;;;;;;8.48;3.80;;;;;;;12.95;74.07;99839.44;1090776;39;20668;-79
2021/10/02 02:04:47;;;;;;;9.10;3.88;;;;;;;13.06;74.19;99837.44;1087793;54;20053;-79
2021/10/02 02:05:50;;;;;;;6.93;4.13;;;;;;;13.07;74.11;99839.13;1087720;54;20045;-80
2021/10/02 02:06:55;;;;;;;9.10;4.45;;;;;;;12.88;74.71;99846.47;1087927;54;20035;-80
2021/10/02 02:08:07;;;;;;;8.38;4.13;;;;;;;13.04;74.52;99844.81;1087859;54;20764;-80
2021/10/02 02:09:17;;;;;;;7.20;4.75;;;;;;;12.90;74.96;99844.47;1087472;54;20042;-79
2021/10/02 02:10:25;;;;;;;6.30;4.30;;;;;;;13.01;74.70;99847.84;1087539;54;20099;-78
2021/10/02 02:11:28;;;;;;;8.05;3.90;;;;;;;13.09;74.20;99850.53;1087799;54;20034;-79
2021/10/02 02:12:35;;;;;;;6.80;3.58;;;;;;;13.09;74.20;99855.91;1087926;54;20034;-80
2021/10/02 02:13:37;;;;;;;7.93;3.83;;;;;;;13.10;74.20;99849.53;1087806;54;20765;-78
2021/10/02 02:14:44;;;;;;;8.57;4.00;;;;;;;12.99;74.20;99850.69;1088138;46;20034;-79
2021/10/02 02:15:50;;;;;;;6.15;4.05;;;;;;;13.03;74.24;99840.47;1090155;39;20744;-79
2021/10/02 02:16:55;;;;;;;7.47;3.60;;;;;;;13.09;74.21;99834.44;1087834;54;20034;-79
2021/10/02 02:18:01;;;;;;;5.68;3.38;;;;;;;13.18;73.63;99832.59;1087807;54;20030;-79
2021/10/02 02:19:06;;;;;;;6.03;3.30;;;;;;;13.26;73.59;99830.75;1087810;54;21950;-80
2021/10/02 02:20:13;;;;;;;8.00;3.58;;;;;;;13.22;73.49;99825.88;1087861;54;20034;-79
2021/10/02 02:21:16;;;;;;;6.05;3.30;;;;;;;13.31;73.39;99827.56;1087834;54;20030;-79
2021/10/02 02:22:24;;;;;;;5.80;3.10;;;;;;;13.37;73.21;99820.69;1087841;54;20041;-79
2021/10/02 02:23:31;;;;;;;6.20;3.60;;;;;;;13.42;72.95;99831.78;1087888;54;20057;-80
2021/10/02 02:24:37;;;;;;;5.47;3.28;;;;;;;13.43;73.03;99829.94;1087977;54;20066;-78
2021/10/02 02:25:39;;;;;;;6.65;3.55;;;;;;;13.49;72.60;99826.56;1087906;54;20034;-80
2021/10/02 02:26:43;;;;;;;5.65;3.22;;;;;;;13.50;72.74;99830.94;1087889;54;20034;-79
2021/10/02 02:27:45;;;;;;;5.53;3.42;;;;;;;13.52;72.72;99832.44;1087538;54;20078;-79
2021/10/02 02:28:50;;;;;;;4.75;2.80;;;;;;;13.55;72.68;99828.59;1090818;39;20301;-79
2021/10/02 02:29:52;;;;;;;6.30;3.50;;;;;;;13.53;72.37;99831.44;1087932;54;20669;-78
2021/10/02 02:30:58;;;;;;;5.40;2.92;;;;;;;13.54;72.57;99833.13;1087855;54;20062;-79
2021/10/02 02:32:01;;;;;;;5.68;2.78;;;;;;;13.53;72.66;99830.63;1087879;54;20057;-80
2021/10/02 02:33:06;;;;;;;5.93;3.15;;;;;;;13.52;72.51;99828.94;1087888;54;20027;-79
2021/10/02 02:34:09;;;;;;;5.55;3.20;;;;;;;13.53;72.34;99823.38;1087962;54;20786;-79
2021/10/02 02:35:14;;;;;;;5.88;3.28;;;;;;;13.55;72.48;99823.22;1088049;54;20096;-79
2021/10/02 02:36:16;;;;;;;6.15;3.25;;;;;;;13.55;72.08;99825.91;1088171;54;20031;-78
2021/10/02 02:37:20;;;;;;;6.72;3.40;;;;;;;13.59;72.10;99823.72;1088192;54;20820;-79
2021/10/02 02:38:22;;;;;;;5.63;3.30;;;;;;;13.56;72.35;99831.13;1088042;54;20045;-79
2021/10/02 02:39:28;;;;;;;8.60;3.72;;;;;;;13.56;72.16;99828.44;1087843;54;20034;-79
2021/10/02 02:40:30;;;;;;;4.90;3.20;;;;;;;13.53;72.48;99836.81;1088131;54;20061;-79
2021/10/02 02:41:34;;;;;;;8.43;3.50;;;;;;;13.47;72.39;99840.19;1088187;54;20756;-79
2021/10/02 02:42:36;;;;;;;7.35;3.65;;;;;;;13.40;72.87;99836.50;1088239;54;20018;-79
2021/10/02 02:43:46;;;;;;;5.57;3.35;;;;;;;13.47;72.47;99828.59;1089324;46;20015;-79
2021/10/02 02:44:50;;;;;;;5.55;3.28;;;;;;;13.52;72.46;99835.13;1088189;54;20792;-79
2021/10/02 02:45:59;;;;;;;5.47;3.53;;;;;;;13.56;72.32;99828.44;1087778;54;20030;-80
2021/10/02 02:47:08;;;;;;;5.38;3.28;;;;;;;13.55;72.41;99829.44;1087784;54;20041;-79
2021/10/02 02:48:14;;;;;;;5.97;3.13;;;;;;;13.58;72.36;99830.94;1087887;54;20034;-80
2021/10/02 02:49:27;;;;;;;6.68;3.80;;;;;;;13.40;72.90;99834.63;1087896;54;20026;-80
2021/10/02 02:50:39;;;;;;;6.70;3.80;;;;;;;13.29;73.29;99831.44;1087889;54;20034;-80
2021/10/02 02:51:50;;;;;;;6.82;4.47;;;;;;;13.21;73.26;99835.78;1087737;54;20030;-80
2021/10/02 02:52:58;;;;;;;7.43;4.43;;;;;;;13.20;73.62;99836.81;1089422;46;20033;-79
2021/10/02 02:54:12;;;;;;;7.82;3.88;;;;;;;13.36;73.18;99829.75;1087749;54;20018;-80
2021/10/02 02:55:19;;;;;;;5.90;3.63;;;;;;;13.43;72.84;99827.25;1089989;46;20022;-79
2021/10/02 02:56:31;;;;;;;7.18;3.85;;;;;;;13.50;72.44;99828.25;1088023;54;20041;-79
2021/10/02 02:57:40;;;;;;;5.45;3.20;;;;;;;13.53;72.41;99818.00;1088238;54;20034;-80
2021/10/02 02:58:48;;;;;;;6.20;3.38;;;;;;;13.58;72.30;99825.56;1088228;54;20018;-80
2021/10/02 02:59:56;;;;;;;6.15;3.28;;;;;;;13.59;72.52;99823.72;1092164;46;20038;-79
2021/10/02 03:01:01;;;;;;;7.38;3.15;;;;;;;13.63;72.21;99830.44;1088007;54;20034;-79
2021/10/02 03:02:07;;;;;;;5.93;3.28;;;;;;;13.65;72.19;99813.13;1087984;54;20035;-80
2021/10/02 03:03:12;;;;;;;5.72;3.00;;;;;;;13.66;71.92;99814.81;1088038;54;20061;-79
2021/10/02 03:04:19;;;;;;;5.30;3.22;;;;;;;13.68;72.08;99818.16;1087898;54;20034;-79
2021/10/02 03:05:24;;;;;;;5.38;2.80;;;;;;;13.70;71.78;99820.66;1087885;54;20014;-78
2021/10/02 03:06:27;;;;;;;5.05;3.05;;;;;;;13.71;71.96;99825.88;1087744;54;20768;-80
2021/10/02 03:07:33;;;;;;;5.90;3.20;;;;;;;13.66;72.10;99825.53;1087858;54;20026;-80
2021/10/02 03:08:37;;;;;;;6.88;3.35;;;;;;;13.65;72.03;99815.81;1087806;54;20903;-79
2021/10/02 03:09:46;;;;;;;5.30;3.20;;;;;;;13.65;72.26;99812.28;1087764;54;20030;-80
2021/10/02 03:10:52;;;;;;;6.25;3.33;;;;;;;13.66;72.15;99813.97;1087768;54;20041;-80
2021/10/02 03:11:58;;;;;;;5.43;3.00;;;;;;;13.67;72.10;99816.47;1087896;54;20038;-78
2021/10/02 03:13:04;;;;;;;7.07;3.53;;;;;;;13.69;71.87;99816.34;1087831;54;20729;-79
2021/10/02 03:14:09;;;;;;;7.13;3.35;;;;;;;13.67;71.80;99816.47;1087736;54;20805;-79
2021/10/02 03:15:14;;;;;;;5.57;3.35;;;;;;;13.69;72.13;99822.53;1087787;54;20018;-79
2021/10/02 03:16:23;;;;;;;5.32;3.28;;;;;;;13.69;71.98;99817.16;1088194;46;20041;-80
2021/10/02 03:17:27;;;;;;;4.85;2.67;;;;;;;13.71;72.08;99816.97;1089707;39;20171;-79
2021/10/02 03:18:35;;;;;;;6.05;3.45;;;;;;;13.69;72.16;99816.34;1087693;54;20030;-80
2021/10/02 03:19:38;;;;;;;5.88;3.20;;;;;;;13.64;72.26;99819.53;1088789;47;20034;-79
2021/10/02 03:20:43;;;;;;;6.18;3.80;;;;;;;13.66;72.37;99819.34;1087854;54;20041;-80
2021/10/02 03:21:45;;;;;;;5.78;3.17;;;;;;;13.66;72.14;99819.34;1087686;54;20042;-79
2021/10/02 03:22:55;;;;;;;5.28;3.10;;;;;;;13.66;72.10;99812.13;1087854;54;20061;-79
2021/10/02 03:23:59;;;;;;;7.07;3.25;;;;;;;13.66;72.09;99811.28;1088378;47;20126;-79
2021/10/02 03:25:04;;;;;;;6.05;3.63;;;;;;;13.67;72.31;99815.66;1087977;54;20034;-79
2021/10/02 03:26:06;;;;;;;6.15;3.35;;;;;;;13.65;72.25;99806.94;1088000;54;20038;-80
2021/10/02 03:27:28;;;;;;;6.63;3.38;;;;;;;13.62;72.43;99813.47;1088238;54;20030;-81
2021/10/02 03:28:41;;;;;;;6.90;3.30;;;;;;;13.65;72.38;99810.44;1091557;47;20061;-80
2021/10/02 03:29:47;;;;;;;5.50;3.08;;;;;;;13.65;72.25;99813.13;1088353;54;20050;-81
2021/10/02 03:30:49;;;;;;;7.30;3.70;;;;;;;13.62;72.38;99813.47;1088308;54;20086;-80
2021/10/02 03:31:58;;;;;;;5.45;3.50;;;;;;;13.62;72.50;99812.63;1088381;47;20029;-81
2021/10/02 03:33:01;;;;;;;6.40;3.63;;;;;;;13.62;72.33;99809.94;1088346;54;20045;-81
2021/10/02 03:34:06;;;;;;;6.70;3.72;;;;;;;13.62;72.28;99820.69;1088231;54;20033;-82
2021/10/02 03:35:09;;;;;;;6.57;3.47;;;;;;;13.62;72.36;99813.47;1088801;47;20022;-80
2021/10/02 03:36:14;;;;;;;6.25;3.58;;;;;;;13.62;72.50;99809.94;1088300;54;20026;-80
2021/10/02 03:37:16;;;;;;;7.63;4.00;;;;;;;13.62;72.62;99807.25;1088191;54;20103;-82
2021/10/02 03:38:31;;;;;;;6.03;3.55;;;;;;;13.62;72.47;99807.25;1088315;54;20030;-81
2021/10/02 03:39:33;;;;;;;6.65;3.35;;;;;;;13.65;72.15;99810.44;1088262;54;20025;-80
2021/10/02 03:40:41;;;;;;;6.68;3.22;;;;;;;13.63;72.47;99803.56;1088338;54;20018;-81
2021/10/02 03:41:43;;;;;;;7.30;3.58;;;;;;;13.60;72.67;99810.13;1088569;54;20041;-82
2021/10/02 03:42:50;;;;;;;6.80;3.30;;;;;;;13.63;72.63;99808.94;1088511;54;20045;-81
2021/10/02 03:43:51;;;;;;;5.50;3.17;;;;;;;13.65;72.55;99812.28;1088690;54;20034;-81
2021/10/02 03:44:58;;;;;;;7.53;3.70;;;;;;;13.63;72.52;99808.94;1088526;54;20025;-81
2021/10/02 03:46:00;;;;;;;6.95;4.25;;;;;;;13.60;72.92;99815.50;1088314;54;20034;-80
2021/10/02 03:47:09;;;;;;;8.70;4.72;;;;;;;13.61;72.93;99809.13;1088459;54;20744;-80
2021/10/02 03:48:11;;;;;;;6.45;4.13;;;;;;;13.61;73.07;99805.56;1088440;54;20038;-82
2021/10/02 03:49:15;;;;;;;6.28;3.97;;;;;;;13.63;72.74;99809.78;1088482;54;20869;-80
2021/10/02 03:50:22;;;;;;;6.85;3.70;;;;;;;13.63;72.80;99800.88;1088496;54;20030;-81
2021/10/02 03:51:24;;;;;;;6.85;3.60;;;;;;;13.63;72.60;99815.16;1088415;54;20030;-81
2021/10/02 03:52:33;;;;;;;5.85;3.38;;;;;;;13.63;72.56;99809.78;1088443;54;20017;-82
2021/10/02 03:53:38;;;;;;;6.13;3.30;;;;;;;13.66;72.83;99816.66;1088483;54;20050;-81
2021/10/02 03:54:40;;;;;;;5.70;3.13;;;;;;;13.67;72.56;99815.66;1088474;54;20046;-81
2021/10/02 03:55:44;;;;;;;6.07;3.25;;;;;;;13.69;72.53;99808.28;1088370;54;20057;-81
2021/10/02 03:56:46;;;;;;;6.57;3.67;;;;;;;13.66;72.32;99813.97;1088330;54;20045;-80
2021/10/02 03:57:51;;;;;;;6.90;3.20;;;;;;;13.68;72.55;99817.34;1088434;54;20034;-81
2021/10/02 03:58:56;;;;;;;6.70;3.95;;;;;;;13.68;72.48;99822.72;1088426;54;20749;-81
2021/10/02 03:59:58;;;;;;;6.07;3.47;;;;;;;13.67;72.49;99816.47;1088496;54;20026;-82
2021/10/02 04:01:03;;;;;;;6.40;3.45;;;;;;;13.68;72.31;99817.34;1088392;54;20036;-80
2021/10/02 04:02:08;;;;;;;6.85;3.40;;;;;;;13.62;72.42;99810.78;1088457;54;20046;-80
2021/10/02 04:03:12;;;;;;;5.07;3.10;;;;;;;13.65;72.43;99812.28;1089394;39;21032;-82
2021/10/02 04:04:15;;;;;;;5.55;3.05;;;;;;;13.62;72.52;99816.16;1088445;54;20030;-81
2021/10/02 04:05:20;;;;;;;5.85;3.28;;;;;;;13.61;72.63;99819.88;1088533;54;20041;-81
2021/10/02 04:06:21;;;;;;;6.15;3.47;;;;;;;13.61;72.67;99805.56;1088259;54;20037;-83
2021/10/02 04:07:26;;;;;;;7.18;3.25;;;;;;;13.63;72.81;99817.00;1088394;54;20026;-81
2021/10/02 04:08:27;;;;;;;6.25;3.30;;;;;;;13.67;72.42;99815.66;1088461;54;20065;-80
2021/10/02 04:09:32;;;;;;;8.90;3.60;;;;;;;13.67;72.39;99815.66;1088273;54;20090;-81
2021/10/02 04:10:33;;;;;;;4.80;3.00;;;;;;;13.69;72.62;99819.03;1088397;54;20033;-80
2021/10/02 04:11:38;;;;;;;6.15;3.50;;;;;;;13.67;72.45;99815.66;1088319;54;20082;-81
2021/10/02 04:12:41;;;;;;;6.60;3.42;;;;;;;13.66;72.48;99816.66;1090903;39;20605;-80
2021/10/02 04:13:45;;;;;;;6.97;3.95;;;;;;;13.65;72.45;99818.50;1088370;54;20037;-81
2021/10/02 04:14:48;;;;;;;6.15;3.42;;;;;;;13.64;72.36;99816.00;1088326;54;20034;-81
2021/10/02 04:15:52;;;;;;;6.15;3.42;;;;;;;13.63;72.46;99820.53;1088368;54;20022;-81
2021/10/02 04:16:58;;;;;;;5.75;3.13;;;;;;;13.60;72.39;99817.34;1088296;54;20034;-80
2021/10/02 04:18:05;;;;;;;6.72;3.63;;;;;;;13.55;72.46;99824.06;1088384;54;20035;-80
2021/10/02 04:19:06;;;;;;;7.93;4.30;;;;;;;13.53;72.77;99820.69;1088326;54;20045;-82
2021/10/02 04:20:12;;;;;;;6.57;3.78;;;;;;;13.53;72.70;99819.88;1088436;54;20070;-80
2021/10/02 04:21:13;;;;;;;6.60;3.60;;;;;;;13.51;72.78;99817.34;1088370;54;20034;-82
2021/10/02 04:22:19;;;;;;;6.50;4.55;;;;;;;13.45;72.77;99822.56;1088349;54;20038;-82
2021/10/02 04:23:24;;;;;;;8.18;4.05;;;;;;;13.35;73.36;99817.31;1088326;54;20062;-81
2021/10/02 04:24:26;;;;;;;7.75;4.20;;;;;;;13.32;73.47;99818.50;1088289;54;20034;-81
2021/10/02 04:25:34;;;;;;;7.00;4.63;;;;;;;13.28;73.42;99817.16;1087967;54;20030;-80
2021/10/02 04:26:49;;;;;;;8.02;4.00;;;;;;;13.25;73.39;99818.34;1088070;54;20031;-82
2021/10/02 04:28:03;;;;;;;6.55;4.22;;;;;;;13.23;73.53;99812.28;1088100;54;20034;-80
2021/10/02 04:29:14;;;;;;;7.03;4.18;;;;;;;13.22;73.51;99818.69;1087493;54;20065;-81
2021/10/02 04:30:30;;;;;;;7.45;3.67;;;;;;;13.25;73.45;99818.34;1088750;39;20613;-80
2021/10/02 04:31:42;;;;;;;6.65;3.67;;;;;;;13.25;73.26;99818.34;1088717;39;20697;-81
2021/10/02 04:33:01;;;;;;;6.15;3.30;;;;;;;13.26;73.23;99820.00;1088013;54;20030;-81
2021/10/02 04:34:05;;;;;;;7.80;3.60;;;;;;;13.27;73.54;99829.75;1087951;54;20015;-81
2021/10/02 04:35:11;;;;;;;7.88;3.80;;;;;;;13.33;73.25;99824.69;1088029;54;20058;-81
2021/10/02 04:36:16;;;;;;;6.65;3.45;;;;;;;13.32;73.38;99815.81;1087950;54;20038;-82
2021/10/02 04:37:17;;;;;;;7.60;3.45;;;;;;;13.34;73.34;99815.66;1087838;54;20034;-80
2021/10/02 04:38:22;;;;;;;7.78;3.53;;;;;;;13.37;73.02;99826.06;1088573;39;21098;-81
2021/10/02 04:39:25;;;;;;;8.07;4.18;;;;;;;13.39;73.23;99814.16;1087983;54;20027;-81
2021/10/02 04:40:30;;;;;;;5.50;3.30;;;;;;;13.41;72.91;99824.75;1088010;54;20046;-81
2021/10/02 04:41:31;;;;;;;6.63;3.05;;;;;;;13.41;72.93;99822.06;1087980;54;20622;-80
2021/10/02 04:42:36;;;;;;;6.72;3.25;;;;;;;13.44;73.05;99824.41;1088008;54;20019;-82
2021/10/02 04:43:41;;;;;;;6.05;3.08;;;;;;;13.44;72.92;99820.88;1087975;54;20023;-81
2021/10/02 04:44:45;;;;;;;5.10;3.33;;;;;;;13.45;73.28;99823.41;1088062;54;21068;-80
2021/10/02 04:45:48;;;;;;;5.20;3.22;;;;;;;13.45;73.23;99827.94;1088064;54;20027;-79
2021/10/02 04:46:53;;;;;;;5.43;3.00;;;;;;;13.44;72.98;99832.47;1088019;54;20034;-82
2021/10/02 04:48:03;;;;;;;5.50;2.88;;;;;;;13.43;73.10;99825.41;1087983;54;20073;-82
2021/10/02 04:49:10;;;;;;;4.75;2.60;;;;;;;13.40;73.42;99826.59;1088043;54;20082;-80
2021/10/02 04:50:12;;;;;;;7.38;3.65;;;;;;;13.40;73.26;99831.97;1088017;54;20034;-81
2021/10/02 04:51:17;;;;;;;5.22;2.65;;;;;;;13.44;73.25;99829.78;1088006;54;20031;-79
2021/10/02 04:52:19;;;;;;;4.63;2.80;;;;;;;13.40;73.35;99821.22;1087858;54;20034;-81
2021/10/02 04:53:29;;;;;;;6.13;3.00;;;;;;;13.42;73.19;99821.03;1088020;54;20057;-81
2021/10/02 04:54:30;;;;;;;6.07;3.20;;;;;;;13.46;73.04;99819.72;1088153;54;20039;-82
2021/10/02 04:55:37;;;;;;;5.20;2.50;;;;;;;13.50;72.84;99820.19;1088019;54;20023;-82
2021/10/02 04:56:39;;;;;;;5.78;2.67;;;;;;;13.52;72.99;99820.88;1087962;54;20038;-80
2021/10/02 04:57:44;;;;;;;5.45;2.85;;;;;;;13.54;72.75;99817.00;1087955;54;20018;-81
2021/10/02 04:58:46;;;;;;;7.88;4.28;;;;;;;13.52;72.97;99810.13;1088042;54;20042;-81
2021/10/02 04:59:51;;;;;;;6.10;3.50;;;;;;;13.50;72.98;99813.00;1088230;54;20744;-82
2021/10/02 05:00:53;;;;;;;6.00;4.00;;;;;;;13.50;72.96;99815.69;1088057;54;20035;-83
2021/10/02 05:01:57;;;;;;;10.35;6.25;;;;;;;13.53;72.79;99817.19;1087888;54;20065;-82
2021/10/02 05:03:00;;;;;;;7.90;4.30;;;;;;;13.55;72.93;99823.22;1088314;39;20628;-79
2021/10/02 05:04:05;;;;;;;6.47;3.35;;;;;;;13.56;72.76;99809.63;1087485;54;20030;-79
2021/10/02 05:05:09;;;;;;;6.88;3.88;;;;;;;13.55;72.83;99817.88;1087482;54;20061;-78
2021/10/02 05:06:13;;;;;;;7.18;3.35;;;;;;;13.55;72.72;99816.00;1087571;54;20046;-79
2021/10/02 05:07:15;;;;;;;6.22;3.80;;;;;;;13.60;72.62;99817.34;1088630;39;20273;-79
2021/10/02 05:08:20;;;;;;;6.95;4.03;;;;;;;13.57;72.90;99814.00;1087387;54;20049;-79
2021/10/02 05:09:22;;;;;;;5.25;3.22;;;;;;;13.61;72.54;99816.31;1088675;39;20675;-78
2021/10/02 05:10:26;;;;;;;7.75;3.30;;;;;;;13.64;72.49;99816.84;1087540;54;20030;-78
2021/10/02 05:11:27;;;;;;;7.63;5.32;;;;;;;13.61;72.66;99806.44;1087564;54;20038;-83
2021/10/02 05:12:32;;;;;;;8.45;5.50;;;;;;;13.64;72.87;99811.47;1092788;39;20940;-83
2021/10/02 05:13:34;;;;;;;7.80;5.35;;;;;;;13.67;72.36;99804.91;1087935;54;20023;-81
2021/10/02 05:14:38;;;;;;;7.60;5.13;;;;;;;13.69;72.49;99810.97;1087722;54;20065;-81
2021/10/02 05:15:41;;;;;;;6.10;3.97;;;;;;;13.72;72.34;99807.91;1087635;54;20034;-81
2021/10/02 05:16:45;;;;;;;7.53;4.15;;;;;;;13.74;72.49;99808.59;1087613;54;20031;-80
2021/10/02 05:17:46;;;;;;;6.60;4.22;;;;;;;13.74;72.47;99803.22;1087574;54;20046;-82
2021/10/02 05:18:50;;;;;;;8.52;5.55;;;;;;;13.73;72.36;99805.06;1087627;54;20736;-80
2021/10/02 05:19:55;;;;;;;7.53;4.40;;;;;;;13.71;72.38;99795.50;1088054;39;20700;-80
2021/10/02 05:21:02;;;;;;;13.60;8.48;;;;;;;13.70;72.27;99796.50;1087398;54;20030;-81
2021/10/02 05:22:04;;;;;;;12.02;7.30;;;;;;;13.67;72.61;99792.31;1087545;54;20045;-81
2021/10/02 05:23:08;;;;;;;12.07;8.30;;;;;;;13.71;72.38;99792.78;1087499;54;20131;-80
2021/10/02 05:24:12;;;;;;;9.07;6.43;;;;;;;13.71;72.21;99787.44;1087704;54;20034;-81
2021/10/02 05:25:16;;;;;;;9.27;6.03;;;;;;;13.70;72.52;99786.59;1087610;54;20041;-81
2021/10/02 05:26:17;;;;;;;8.13;5.22;;;;;;;13.73;72.34;99788.97;1091970;39;20872;-80
2021/10/02 05:27:21;;;;;;;8.75;4.40;;;;;;;13.72;72.33;99786.41;1089952;39;21092;-81
2021/10/02 05:28:24;;;;;;;7.75;5.05;;;;;;;13.52;73.19;99788.66;1087525;54;20781;-80
2021/10/02 05:29:28;;;;;;;7.60;4.70;;;;;;;13.35;73.86;99783.28;1087288;54;20042;-79
2021/10/02 05:30:30;;;;;;;7.88;4.82;;;;;;;13.34;74.04;99794.16;1087379;54;20034;-79
2021/10/02 05:31:34;;;;;;;8.40;4.75;;;;;;;13.24;74.07;99789.81;1087403;54;20090;-80
2021/10/02 05:32:35;;;;;;;10.00;5.22;;;;;;;13.20;74.39;99791.16;1088269;39;20594;-79
2021/10/02 05:33:39;;;;;;;6.78;4.22;;;;;;;13.19;74.33;99786.81;1087505;54;20031;-78
2021/10/02 05:34:42;;;;;;;8.18;4.40;;;;;;;13.24;74.50;99792.50;1087508;54;20030;-81
2021/10/02 05:35:48;;;;;;;8.52;3.63;;;;;;;13.31;73.91;99789.97;1087922;54;20034;-82
2021/10/02 05:36:55;;;;;;;8.02;4.30;;;;;;;13.23;74.16;99787.31;1087887;54;20804;-81
2021/10/02 05:38:06;;;;;;;6.30;3.70;;;;;;;13.20;74.99;99784.94;1087711;54;20046;-81
2021/10/02 05:39:08;;;;;;;9.02;3.92;;;;;;;13.20;74.67;99784.94;1087886;54;20041;-81
2021/10/02 05:40:13;;;;;;;7.25;3.72;;;;;;;13.28;74.59;99784.94;1089689;39;20698;-80
2021/10/02 05:41:19;;;;;;;5.72;3.40;;;;;;;13.31;74.06;99787.28;1088295;39;20645;-80
2021/10/02 05:42:26;;;;;;;5.70;3.70;;;;;;;13.31;74.23;99789.16;1087886;54;20034;-80
2021/10/02 05:43:30;;;;;;;7.75;3.80;;;;;;;13.35;74.20;99774.38;1087516;54;20034;-80
2021/10/02 05:44:33;;;;;;;6.43;3.95;;;;;;;13.33;74.04;99785.28;1087599;54;20034;-80
2021/10/02 05:45:37;;;;;;;7.93;4.05;;;;;;;13.39;74.08;99783.81;1087774;54;20057;-82
2021/10/02 05:46:41;;;;;;;5.97;3.38;;;;;;;13.46;73.78;99782.13;1087944;54;20057;-81
2021/10/02 05:47:44;;;;;;;7.43;3.47;;;;;;;13.45;73.92;99791.16;1087614;54;20034;-81
2021/10/02 05:48:48;;;;;;;6.97;3.53;;;;;;;13.45;73.74;99791.16;1087819;54;20042;-81
2021/10/02 05:49:50;;;;;;;6.22;3.65;;;;;;;13.47;74.07;99794.53;1088296;39;20874;-80
2021/10/02 05:50:55;;;;;;;7.25;4.10;;;;;;;13.49;73.84;99789.84;1088921;39;20602;-82
2021/10/02 05:51:59;;;;;;;10.63;6.90;;;;;;;13.54;73.83;99800.06;1087696;54;20042;-81
2021/10/02 05:53:03;;;;;;;8.18;5.13;;;;;;;13.55;74.02;99801.75;1087826;54;20026;-81
2021/10/02 05:54:05;;;;;;;6.72;4.63;;;;;;;13.50;74.15;99799.56;1087906;54;20014;-79
2021/10/02 05:55:11;;;;;;;8.13;4.35;;;;;;;13.55;74.07;99802.56;1087811;54;20038;-80
2021/10/02 05:56:12;;;;;;;7.80;4.20;;;;;;;13.56;74.12;99806.94;1087601;54;20102;-81
2021/10/02 05:57:17;;;;;;;6.93;4.32;;;;;;;13.57;73.81;99805.94;1088014;54;20061;-82
2021/10/02 05:58:22;;;;;;;6.25;4.03;;;;;;;13.63;73.59;99803.56;1091612;39;20594;-82
2021/10/02 05:59:25;;;;;;;6.32;4.18;;;;;;;13.64;73.65;99811.47;1088072;54;20030;-81
2021/10/02 06:00:29;;;;;;;7.30;4.20;;;;;;;13.63;73.79;99806.25;1088424;39;20590;-82
2021/10/02 06:01:31;;;;;;;7.72;4.30;;;;;;;13.61;73.92;99802.88;1087971;54;20045;-82